メインページ
METAR-TAF:

METAR-TAF

空港 :

ヤップ国際空港

ヤップ州, ミクロネシア

緯度: 09-29N, 経度: 138-05E, 海抜: 28m

現時点の気象観測

当レポートは40分前の13:50(UTC)に作成
無風
気温 27°C
湿度 94%
気圧 1009 hPa
視程: 19.3km
高度1600ftの雲は散在している
高度13000ftの雲は散在している
高度30000ftの曇り

METAR: PTYA 201350Z 00000KT 12SM SCT016 SCT130 OVC300 27/26 A2981 RMK SLP096 T02730256

時間: 00:30 (14:30 UTC)

予報

当レポートは3時間10分前の11:20(UTC)に作成
予報は20日の 12時(UTC)から 21日の 12時(UTC)まで有効
南/南西の風 5kt
視程: 10km
高度1600ftの雲は散在している
高度13000ftの雲は散在している
高度30000ftの曇り
近辺でにわか雨

TAF: PTYA 201120Z 2012/2112 20005KT P6SM VCSH SCT016 SCT130 OVC300

4,000以上の空港の気象観測と天気予報(METAR報とTAF報)

利用可能な観測所は地図上に黄色い丸と赤い丸で示す。

丸の上にカーソルを重ねると観測所名を参照できる。

次にクリックすると気象観測と天気予報を参照できる。

マップの切り替え:黒色「×」印の緑ボタンをクリックして拡大、「-」印の緑ボタンをクリックして縮小、緑色の三角印をクリックして隣りの地図に切り替え


METAR-TAF: